パゴパゴ の空港の天気 - METARとTAF

パゴパゴ国際空港 ( NSTU / PPG ) - アメリカ領サモア パゴパゴ
飛行場実況気象(Metar)
観測時間12/09 17:51 SST (12/10 04:51 UTC)
風向・風速静穏 0m/s
視程10km以上
天気現象弱いしゅう雨
少しの雲 雲底高度 210m
全天の8割程度の雲 雲底高度 430m
全天を覆う雲 雲底高度 1220m
気温25.8℃
湿度92%
気圧1004.7hPa
METARNSTU 100451Z 00000KT 8SM -SHRA FEW007 BKN014TCU OVC040 26/24 A2967 RMK TCU ALQDS SLP047 T02580244
過去の天気等 Google飛行場航空写真 Wunderground天気予報

過去48時間のMETAR

飛行場予報(TAF)
発表時間: 12/09 18:21 SST (12/10 05:21 UTC)
予報対象時間: 9日19時 SST ~ 10日19時 SST
風向・風速西 4m/s
視程10km以上
天気現象弱いしゅう雨
少しの雲 雲底高度 210m
全天の4割程度の雲 雲底高度 460m
全天を覆う雲 雲底高度 1220m
10日13時 SST から
風向・風速北西 4m/s
視程10km以上
天気現象弱いしゅう雨 周辺で雷
全天の4割程度の雲 雲底高度 210m
全天の8割程度の積乱雲 雲底高度 460m
全天を覆う雲 雲底高度 1220m
NSTU 100521Z 1006/1106 28008KT P6SM -SHRA FEW007 SCT015 OVC040
FM110000 32008KT P6SM -SHRA VCTS SCT007 BKN015CB OVC040